This is the latest recevied weather packets stored in our database for station/object JE4YKI-13. If no packets are shown the sender has not sent any weather packets the latest 1 day(s).
| Time | Temp. | Humidity | Pressure | Rain* | Wind** | Luminosity | Snow |
|---|---|---|---|---|---|---|---|
| 1836274550 | 26.11° C | 88% | 1008.7 hPa | 0 mm | 0.89 m/s, 148° | - | - |
| 1836274400 | 26.11° C | 86% | 1008.5 hPa | 0 mm | 0.89 m/s, 144° | - | - |
| 1836273950 | 26.11° C | 88% | 1008.6 hPa | 0 mm | 0 m/s | - | - |
| 1778014833 | 12.22° C | 79% | 1019.4 hPa | 0 mm | 0 m/s | - | - |
| 1778014233 | 12.22° C | 80% | 1019.4 hPa | 0 mm | 0 m/s | - | - |
| 1778013632 | 12.22° C | 80% | 1019.2 hPa | 0 mm | 0 m/s | - | - |
| 1778013032 | 12.22° C | 79% | 1019.2 hPa | 0 mm | 0 m/s | - | - |
| 1778012432 | 12.22° C | 78% | 1019 hPa | 0 mm | 0 m/s | - | - |
| 1778011831 | 11.67° C | 81% | 1018.9 hPa | 0 mm | 0 m/s | - | - |
| 1778011231 | 11.67° C | 80% | 1018.8 hPa | 0 mm | 0 m/s | - | - |
| 1778010631 | 12.22° C | 80% | 1018.8 hPa | 0 mm | 0 m/s | - | - |
| 1778010030 | 11.67° C | 82% | 1018.8 hPa | 0 mm | 0 m/s | - | - |
| 1778009430 | 11.11° C | 83% | 1018.8 hPa | 0 mm | 0 m/s | - | - |
| 1778008829 | 11.11° C | 82% | 1018.6 hPa | 0 mm | 0 m/s | - | - |
| 1778008229 | 11.67° C | 82% | 1018.6 hPa | 0 mm | 0 m/s | - | - |
| 1778007629 | 11.67° C | 82% | 1018.7 hPa | 0 mm | 0 m/s | - | - |
| 1778007028 | 11.67° C | 82% | 1018.8 hPa | 0 mm | 0 m/s | - | - |
| 1778006428 | 11.67° C | 81% | 1018.8 hPa | 0 mm | 0 m/s | - | - |
| 1778005828 | 11.67° C | 80% | 1019 hPa | 0 mm | 0 m/s | - | - |
| 1778005227 | 11.67° C | 79% | 1019 hPa | 0 mm | 0 m/s | - | - |
| 1778004627 | 11.67° C | 79% | 1018.9 hPa | 0 mm | 0 m/s | - | - |
| 1778004027 | 12.22° C | 78% | 1019.1 hPa | 0 mm | 0 m/s | - | - |
| 1778003426 | 12.22° C | 78% | 1019.1 hPa | 0 mm | 0 m/s | - | - |
| 1778002826 | 12.22° C | 77% | 1019.2 hPa | 0 mm | 0 m/s | - | - |
| 1778002225 | 12.78° C | 77% | 1019.1 hPa | 0 mm | 0 m/s | - | - |
* Rain latest hour (hover to see other rain measurements)
** Current wind speed in m/s (hover to see current wind gust speed)